Time;durP1;ratioP1;P1;durP2;ratioP2;P2;SDS_P1;SDS_P2;PMS_P1;PMS_P2;Temp;Humidity;BMP_temperature;BMP_pressure;BME280_temperature;BME280_humidity;BME280_pressure;Samples;Min_cycle;Max_cycle;Signal;HPM_P1;HPM_P2
2022/09/29 00:00:34;;;;;;;2.60;2.38;;;9.80;99.90;;;;;;4041892;29;20033;-61
2022/09/29 00:02:34;;;;;;;2.90;2.20;;;9.80;99.90;;;;;;4043168;29;20404;-61
2022/09/29 00:04:35;;;;;;;2.35;2.15;;;9.80;99.90;;;;;;4042527;29;20049;-61
2022/09/29 00:06:35;;;;;;;3.25;2.53;;;9.80;99.90;;;;;;4044767;29;20045;-61
2022/09/29 00:08:36;;;;;;;3.63;2.80;;;9.80;99.90;;;;;;4043031;29;20036;-61
2022/09/29 00:10:39;;;;;;;4.35;3.08;;;9.80;99.90;;;;;;4042462;29;20039;-61
2022/09/29 00:12:40;;;;;;;4.70;3.78;;;9.80;99.90;;;;;;4040987;29;20040;-61
2022/09/29 00:14:40;;;;;;;4.57;3.55;;;9.80;99.90;;;;;;4041329;29;20039;-61
2022/09/29 00:16:41;;;;;;;4.38;3.30;;;9.80;99.90;;;;;;4041233;29;20047;-61
2022/09/29 00:18:42;;;;;;;3.15;2.65;;;9.80;99.90;;;;;;4043495;29;20096;-61
2022/09/29 00:20:42;;;;;;;1.90;1.70;;;9.80;99.90;;;;;;4042910;29;20093;-61
2022/09/29 00:22:43;;;;;;;1.90;1.77;;;9.80;99.90;;;;;;4040112;29;20056;-61
2022/09/29 00:24:43;;;;;;;1.95;1.65;;;9.80;99.90;;;;;;4041229;29;20035;-61
2022/09/29 00:26:45;;;;;;;2.75;2.00;;;9.70;99.90;;;;;;4039871;29;20172;-61
2022/09/29 00:28:56;;;;;;;2.55;2.00;;;9.70;99.90;;;;;;4042592;29;20192;-61
2022/09/29 00:31:00;;;;;;;2.63;2.22;;;9.70;99.90;;;;;;4045414;29;20040;-61
2022/09/29 00:33:00;;;;;;;2.55;2.22;;;9.70;99.90;;;;;;4055345;29;20053;-61
2022/09/29 00:35:01;;;;;;;3.28;2.13;;;9.60;99.90;;;;;;4043400;29;20029;-61
2022/09/29 00:37:02;;;;;;;3.00;1.98;;;9.60;99.90;;;;;;4040720;29;20513;-61
2022/09/29 00:39:03;;;;;;;2.45;2.20;;;9.60;99.90;;;;;;4041006;29;20037;-61
2022/09/29 00:41:05;;;;;;;2.17;1.90;;;9.60;99.90;;;;;;4042863;29;20037;-61
2022/09/29 00:43:18;;;;;;;3.00;2.65;;;9.60;99.90;;;;;;4039985;29;20056;-61
2022/09/29 00:45:23;;;;;;;4.60;2.63;;;9.50;99.90;;;;;;4038868;29;20484;-61
2022/09/29 00:47:24;;;;;;;3.40;2.70;;;9.50;99.90;;;;;;4043883;29;20037;-61
2022/09/29 00:49:37;;;;;;;5.38;3.10;;;9.50;99.90;;;;;;4060904;29;20044;-61
2022/09/29 00:51:41;;;;;;;4.13;3.13;;;9.50;99.90;;;;;;4044595;29;20074;-62
2022/09/29 00:53:42;;;;;;;4.07;3.17;;;9.50;99.90;;;;;;4042061;29;20037;-61
2022/09/29 00:55:51;;;;;;;3.47;2.90;;;9.50;99.90;;;;;;4042317;29;20123;-61
2022/09/29 00:58:26;;;;;;;3.50;2.60;;;9.50;99.90;;;;;;4040268;29;20036;-61
2022/09/29 01:00:27;;;;;;;2.75;2.35;;;9.50;99.90;;;;;;4045589;29;20120;-61
2022/09/29 01:02:31;;;;;;;2.20;2.00;;;9.40;99.90;;;;;;4043434;29;20055;-61
2022/09/29 01:04:31;;;;;;;2.15;1.80;;;9.40;99.90;;;;;;4039215;29;20358;-61
2022/09/29 01:06:58;;;;;;;3.60;2.60;;;9.40;99.90;;;;;;4039784;29;20043;-61
2022/09/29 01:09:09;;;;;;;1.95;1.83;;;9.40;99.90;;;;;;4042801;29;20545;-61
2022/09/29 01:11:11;;;;;;;2.60;2.15;;;9.40;99.90;;;;;;4042759;29;20040;-61
2022/09/29 01:13:11;;;;;;;3.00;2.40;;;9.30;99.90;;;;;;4042233;29;20488;-61
2022/09/29 01:15:15;;;;;;;3.42;2.30;;;9.30;99.90;;;;;;4040569;29;20308;-61
2022/09/29 01:17:16;;;;;;;2.95;2.30;;;9.30;99.90;;;;;;4043353;29;20025;-61
2022/09/29 01:19:39;;;;;;;2.60;2.38;;;9.30;99.90;;;;;;4041297;29;20033;-61
2022/09/29 01:21:58;;;;;;;3.63;2.65;;;9.30;99.90;;;;;;4044145;29;20053;-61
2022/09/29 01:24:20;;;;;;;3.45;2.80;;;9.30;99.90;;;;;;4042538;29;20099;-61
2022/09/29 01:26:32;;;;;;;6.20;3.25;;;9.30;99.90;;;;;;4042502;29;20025;-61
2022/09/29 01:28:33;;;;;;;3.97;3.22;;;9.30;99.90;;;;;;4043078;29;20111;-61
2022/09/29 01:30:42;;;;;;;3.78;3.00;;;9.20;99.90;;;;;;4040875;29;20093;-61
2022/09/29 01:33:01;;;;;;;3.10;2.78;;;9.30;99.90;;;;;;4039261;29;20043;-61
2022/09/29 01:35:23;;;;;;;4.25;3.20;;;9.30;99.90;;;;;;4043948;29;20037;-65
2022/09/29 01:37:57;;;;;;;3.42;2.83;;;9.30;99.90;;;;;;4041097;29;20040;-61
2022/09/29 01:40:07;;;;;;;4.45;3.10;;;9.30;99.90;;;;;;4043167;29;20489;-61
2022/09/29 01:42:25;;;;;;;3.65;3.25;;;9.20;99.90;;;;;;4039436;29;20467;-63
2022/09/29 01:44:35;;;;;;;3.85;2.97;;;9.20;99.90;;;;;;4045385;29;20136;-61
2022/09/29 01:46:43;;;;;;;3.83;3.20;;;9.20;99.90;;;;;;4042163;29;20033;-61
2022/09/29 01:48:49;;;;;;;4.05;3.03;;;9.20;99.90;;;;;;4040283;29;20040;-61
2022/09/29 01:50:54;;;;;;;4.75;3.33;;;9.20;99.90;;;;;;4042903;29;20049;-61
2022/09/29 01:53:00;;;;;;;4.55;3.38;;;9.20;99.90;;;;;;4043235;29;20036;-61
2022/09/29 01:55:16;;;;;;;5.47;3.35;;;9.20;99.90;;;;;;4040420;29;20069;-61
2022/09/29 01:57:30;;;;;;;8.23;3.55;;;9.20;99.90;;;;;;4041070;29;20165;-61
2022/09/29 02:00:12;;;;;;;3.70;3.20;;;9.20;99.90;;;;;;4054239;29;20032;-61
2022/09/29 02:02:21;;;;;;;4.30;3.30;;;9.20;99.90;;;;;;4037002;29;20131;-61
2022/09/29 02:04:28;;;;;;;4.45;3.30;;;9.30;99.90;;;;;;4043013;29;20492;-61
2022/09/29 02:06:42;;;;;;;4.38;3.10;;;9.20;99.90;;;;;;4042307;29;20037;-61
2022/09/29 02:08:51;;;;;;;4.63;2.80;;;9.20;99.90;;;;;;4041835;29;20041;-61
2022/09/29 02:11:03;;;;;;;3.35;3.03;;;9.20;99.90;;;;;;4042177;29;20495;-61
2022/09/29 02:13:06;;;;;;;4.55;2.92;;;9.20;99.90;;;;;;4043712;29;20033;-61
2022/09/29 02:15:09;;;;;;;3.72;2.95;;;9.10;99.90;;;;;;4043559;29;20032;-62
2022/09/29 02:17:34;;;;;;;4.57;3.20;;;9.10;99.90;;;;;;4040893;29;20097;-61
2022/09/29 02:19:39;;;;;;;3.42;2.83;;;9.10;99.90;;;;;;4043616;29;20037;-61
2022/09/29 02:21:41;;;;;;;5.88;3.10;;;9.10;99.90;;;;;;4041710;29;20604;-61
2022/09/29 02:23:42;;;;;;;3.67;3.17;;;9.10;99.90;;;;;;4042029;29;20074;-61
2022/09/29 02:25:45;;;;;;;4.68;3.42;;;9.10;99.90;;;;;;4040060;29;20040;-61
2022/09/29 02:27:47;;;;;;;5.00;3.38;;;9.10;99.90;;;;;;4042953;29;20052;-61
2022/09/29 02:29:47;;;;;;;5.70;4.28;;;9.00;99.90;;;;;;4042081;29;20046;-61
2022/09/29 02:31:48;;;;;;;4.55;3.42;;;9.00;99.90;;;;;;4041371;29;20038;-61
2022/09/29 02:33:49;;;;;;;6.57;3.55;;;9.10;99.90;;;;;;4040002;29;20037;-61
2022/09/29 02:36:01;;;;;;;5.85;4.18;;;9.10;99.90;;;;;;4046522;29;20468;-61
2022/09/29 02:38:22;;;;;;;4.35;3.53;;;9.00;99.90;;;;;;4042101;29;20029;-60
2022/09/29 02:40:58;;;;;;;4.90;3.60;;;9.00;99.90;;;;;;4042607;29;20444;-61
2022/09/29 02:43:23;;;;;;;4.60;3.70;;;9.10;99.90;;;;;;4054712;29;20392;-60
2022/09/29 02:45:48;;;;;;;5.05;3.28;;;9.00;99.90;;;;;;4043940;29;20033;-60
2022/09/29 02:48:10;;;;;;;12.23;3.42;;;9.10;99.90;;;;;;4041427;29;20155;-61
2022/09/29 02:50:20;;;;;;;5.15;3.53;;;9.00;99.90;;;;;;4042574;29;20040;-62
2022/09/29 02:52:43;;;;;;;4.35;3.20;;;9.00;99.90;;;;;;4049264;29;20040;-60
2022/09/29 02:54:53;;;;;;;6.13;3.58;;;9.00;99.90;;;;;;4042062;29;20530;-60
2022/09/29 02:57:19;;;;;;;3.72;3.28;;;9.00;99.90;;;;;;4040188;29;20052;-61
2022/09/29 02:59:26;;;;;;;4.43;3.63;;;9.00;99.90;;;;;;4041701;29;20056;-61
2022/09/29 03:01:31;;;;;;;3.25;2.95;;;9.00;99.90;;;;;;4059677;29;20448;-61
2022/09/29 03:03:31;;;;;;;3.65;3.00;;;9.10;99.90;;;;;;4042071;29;20036;-61
2022/09/29 03:05:32;;;;;;;5.25;3.75;;;9.10;99.90;;;;;;4045258;29;20457;-61
2022/09/29 03:07:34;;;;;;;5.07;3.15;;;9.00;99.90;;;;;;4046726;29;20033;-61
2022/09/29 03:09:35;;;;;;;5.17;3.00;;;9.00;99.90;;;;;;4041942;29;20056;-61
2022/09/29 03:11:35;;;;;;;3.25;2.75;;;9.00;99.90;;;;;;4043763;29;20734;-60
2022/09/29 03:13:36;;;;;;;3.03;2.70;;;9.00;99.90;;;;;;4044831;29;20080;-60
2022/09/29 03:15:36;;;;;;;3.80;3.05;;;9.00;99.90;;;;;;4038511;29;20045;-61
2022/09/29 03:17:38;;;;;;;4.43;3.10;;;9.00;99.90;;;;;;4041171;29;20041;-60
2022/09/29 03:19:39;;;;;;;4.25;3.55;;;9.00;99.90;;;;;;4056345;29;20048;-62
2022/09/29 03:21:39;;;;;;;3.90;3.33;;;9.00;99.90;;;;;;4041884;29;20089;-60
2022/09/29 03:23:40;;;;;;;5.18;3.42;;;8.90;99.90;;;;;;4043967;29;20064;-61
2022/09/29 03:25:41;;;;;;;4.00;3.22;;;8.90;99.90;;;;;;4041010;29;20045;-61
2022/09/29 03:27:42;;;;;;;4.30;3.20;;;8.90;99.90;;;;;;4046747;29;20133;-61
2022/09/29 03:29:43;;;;;;;4.28;3.15;;;8.90;99.90;;;;;;4044042;29;20041;-61
2022/09/29 03:31:44;;;;;;;3.67;3.25;;;8.90;99.90;;;;;;4048725;29;20044;-61
2022/09/29 03:33:45;;;;;;;3.75;3.08;;;8.90;99.90;;;;;;4045715;29;20064;-61
2022/09/29 03:35:45;;;;;;;4.05;2.72;;;8.90;99.90;;;;;;4043217;29;20389;-61
2022/09/29 03:37:46;;;;;;;4.50;2.80;;;8.90;99.90;;;;;;4038634;29;20449;-61
2022/09/29 03:39:46;;;;;;;5.10;3.15;;;8.90;99.90;;;;;;4043328;29;20382;-61
2022/09/29 03:41:47;;;;;;;3.03;2.55;;;8.90;99.90;;;;;;4044817;29;20040;-61
2022/09/29 03:43:47;;;;;;;3.55;3.03;;;8.90;99.90;;;;;;4044521;29;20048;-60
2022/09/29 03:45:50;;;;;;;3.30;2.60;;;8.90;99.90;;;;;;4042848;29;20475;-60
2022/09/29 03:47:51;;;;;;;3.97;2.90;;;8.90;99.90;;;;;;4039751;29;20116;-61
2022/09/29 03:49:51;;;;;;;5.38;3.25;;;8.90;99.90;;;;;;4043487;29;20565;-61
2022/09/29 03:51:52;;;;;;;4.50;3.20;;;8.90;99.90;;;;;;4041945;29;20516;-61
2022/09/29 03:53:53;;;;;;;4.63;3.35;;;8.90;99.90;;;;;;4043290;29;20047;-61
2022/09/29 03:55:53;;;;;;;5.85;3.28;;;8.90;99.90;;;;;;4042389;29;20043;-60
2022/09/29 03:57:54;;;;;;;3.40;2.83;;;8.90;99.90;;;;;;4039517;29;20479;-60
2022/09/29 03:59:56;;;;;;;3.92;3.50;;;8.90;99.90;;;;;;4041797;29;20417;-61
2022/09/29 04:01:56;;;;;;;3.60;3.20;;;8.90;99.90;;;;;;4045076;29;20449;-61
2022/09/29 04:03:57;;;;;;;5.60;3.55;;;8.90;99.90;;;;;;4046174;29;20088;-61
2022/09/29 04:05:58;;;;;;;3.25;2.80;;;8.80;99.90;;;;;;4047039;29;20048;-61
2022/09/29 04:07:58;;;;;;;4.72;2.90;;;8.90;99.90;;;;;;4042264;29;20049;-61
2022/09/29 04:09:59;;;;;;;3.30;2.53;;;8.80;99.90;;;;;;4048753;29;20056;-61
2022/09/29 04:12:00;;;;;;;4.68;3.10;;;8.80;99.90;;;;;;4036747;29;20101;-61
2022/09/29 04:14:01;;;;;;;3.40;2.85;;;8.80;99.90;;;;;;4044483;29;20077;-60
2022/09/29 04:16:04;;;;;;;4.28;2.72;;;8.80;99.90;;;;;;4046944;29;20168;-60
2022/09/29 04:18:05;;;;;;;4.88;3.03;;;8.80;99.90;;;;;;4041850;29;20537;-60
2022/09/29 04:20:06;;;;;;;4.85;3.13;;;8.80;99.90;;;;;;4044989;29;20040;-60
2022/09/29 04:22:08;;;;;;;4.78;3.03;;;8.80;99.90;;;;;;4044635;29;20067;-60
2022/09/29 04:24:08;;;;;;;6.20;3.35;;;8.80;99.90;;;;;;4044760;29;20796;-61
2022/09/29 04:26:09;;;;;;;5.07;3.20;;;8.80;99.90;;;;;;4042520;29;20048;-65
2022/09/29 04:28:10;;;;;;;3.38;2.83;;;8.80;99.90;;;;;;4041137;29;20033;-66
2022/09/29 04:30:11;;;;;;;4.18;2.92;;;8.70;99.90;;;;;;4042044;29;20037;-62
2022/09/29 04:32:11;;;;;;;4.47;2.90;;;8.70;99.90;;;;;;4043116;29;20492;-61
2022/09/29 04:34:12;;;;;;;4.07;2.78;;;8.70;99.90;;;;;;4038824;29;20033;-61
2022/09/29 04:36:12;;;;;;;4.82;2.72;;;8.70;99.90;;;;;;4038459;29;20040;-61
2022/09/29 04:38:13;;;;;;;3.00;2.60;;;8.70;99.90;;;;;;4041492;29;20037;-61
2022/09/29 04:40:14;;;;;;;4.00;2.80;;;8.60;99.90;;;;;;4041665;29;20057;-60
2022/09/29 04:42:15;;;;;;;3.13;2.80;;;8.60;99.90;;;;;;4055161;29;20088;-61
2022/09/29 04:44:15;;;;;;;3.97;2.85;;;8.60;99.90;;;;;;4042824;29;20044;-60
2022/09/29 04:46:16;;;;;;;3.40;2.80;;;8.60;99.90;;;;;;4041542;29;20041;-60
2022/09/29 04:48:16;;;;;;;3.40;2.72;;;8.60;99.90;;;;;;4042854;29;20100;-61
2022/09/29 04:50:17;;;;;;;5.38;3.47;;;8.60;99.90;;;;;;4039207;29;20037;-60
2022/09/29 04:52:17;;;;;;;6.22;3.17;;;8.60;99.90;;;;;;4048316;29;20049;-61
2022/09/29 04:54:18;;;;;;;5.43;3.25;;;8.60;99.90;;;;;;4044486;29;20392;-61
2022/09/29 04:56:19;;;;;;;4.50;2.90;;;8.60;99.90;;;;;;4045513;29;20412;-60
2022/09/29 04:58:19;;;;;;;4.35;3.15;;;8.60;99.90;;;;;;4040943;29;20112;-60
2022/09/29 05:00:20;;;;;;;3.83;2.92;;;8.60;99.90;;;;;;4045032;29;20062;-60
2022/09/29 05:02:20;;;;;;;3.60;2.67;;;8.60;99.90;;;;;;4058249;29;20514;-61
2022/09/29 05:04:21;;;;;;;3.63;2.90;;;8.60;99.90;;;;;;4046728;29;20101;-61
2022/09/29 05:06:22;;;;;;;3.75;2.90;;;8.60;99.90;;;;;;4040600;29;20033;-61
2022/09/29 05:08:22;;;;;;;4.30;3.00;;;8.60;99.90;;;;;;4039817;29;20168;-61
2022/09/29 05:10:23;;;;;;;7.03;3.47;;;8.60;99.90;;;;;;4040971;29;21189;-60
2022/09/29 05:12:23;;;;;;;5.47;3.40;;;8.60;99.90;;;;;;4038372;29;20040;-61
2022/09/29 05:14:24;;;;;;;3.13;2.63;;;8.60;99.90;;;;;;4039628;29;20046;-61
2022/09/29 05:16:25;;;;;;;3.95;3.13;;;8.60;99.90;;;;;;4037586;29;20032;-60
2022/09/29 05:18:26;;;;;;;3.38;2.45;;;8.60;99.90;;;;;;4039190;29;20060;-60
2022/09/29 05:20:27;;;;;;;3.40;2.80;;;8.60;99.90;;;;;;4036600;29;20575;-61
2022/09/29 05:22:27;;;;;;;5.40;3.00;;;8.60;99.90;;;;;;4039787;29;20045;-60
2022/09/29 05:24:28;;;;;;;3.65;2.65;;;8.60;99.90;;;;;;4041187;29;20120;-60
2022/09/29 05:26:29;;;;;;;3.83;2.40;;;8.60;99.90;;;;;;4038897;29;20041;-60
2022/09/29 05:28:29;;;;;;;3.50;2.67;;;8.60;99.90;;;;;;4039227;29;25838;-60
2022/09/29 05:30:30;;;;;;;4.75;3.30;;;8.60;99.90;;;;;;4037476;29;20076;-61
2022/09/29 05:32:30;;;;;;;5.78;3.17;;;8.60;99.90;;;;;;4038218;29;20043;-60
2022/09/29 05:34:31;;;;;;;4.07;2.90;;;8.60;99.90;;;;;;4037283;29;20041;-61
2022/09/29 05:36:32;;;;;;;5.13;3.35;;;8.60;99.90;;;;;;4039639;29;20500;-60
2022/09/29 05:38:34;;;;;;;4.18;2.92;;;8.60;99.90;;;;;;4040558;29;20512;-61
2022/09/29 05:40:36;;;;;;;6.10;3.47;;;8.60;99.90;;;;;;4039005;29;20056;-61
2022/09/29 05:42:36;;;;;;;4.03;3.05;;;8.60;99.90;;;;;;4040538;29;20056;-60
2022/09/29 05:44:37;;;;;;;4.05;3.40;;;8.60;99.90;;;;;;4044487;29;20049;-60
2022/09/29 05:46:38;;;;;;;5.00;3.33;;;8.60;99.90;;;;;;4039725;29;20051;-61
2022/09/29 05:48:39;;;;;;;4.45;3.38;;;8.60;99.90;;;;;;4054686;29;20138;-61
2022/09/29 05:50:42;;;;;;;6.72;3.65;;;8.50;99.90;;;;;;4031716;29;20037;-63
2022/09/29 05:52:47;;;;;;;5.70;3.30;;;8.60;99.90;;;;;;4036480;29;20487;-63
2022/09/29 05:54:49;;;;;;;4.03;3.28;;;8.60;99.90;;;;;;4039455;29;20048;-62
2022/09/29 05:56:50;;;;;;;5.80;3.10;;;8.60;99.90;;;;;;4038127;29;20060;-63
2022/09/29 05:58:52;;;;;;;5.32;3.30;;;8.60;99.90;;;;;;4037300;29;20052;-63
2022/09/29 06:00:52;;;;;;;5.13;3.67;;;8.60;99.90;;;;;;4037594;29;20108;-62
2022/09/29 06:02:53;;;;;;;4.93;3.17;;;8.60;99.90;;;;;;4037761;29;20481;-63
2022/09/29 06:04:54;;;;;;;4.75;3.30;;;8.60;99.90;;;;;;4039788;29;20701;-63
2022/09/29 06:06:56;;;;;;;7.43;4.07;;;8.60;99.90;;;;;;4036651;29;20573;-63
2022/09/29 06:08:58;;;;;;;6.38;3.97;;;8.60;99.90;;;;;;4047417;29;20658;-63
2022/09/29 06:11:07;;;;;;;4.90;3.08;;;8.70;99.90;;;;;;4032117;29;20520;-62
2022/09/29 06:13:07;;;;;;;3.60;2.70;;;8.60;99.90;;;;;;4045578;29;20072;-62
2022/09/29 06:15:08;;;;;;;3.42;2.72;;;8.60;99.90;;;;;;4034035;29;20511;-63
2022/09/29 06:17:09;;;;;;;3.30;2.58;;;8.60;99.90;;;;;;4035005;29;20527;-63
2022/09/29 06:19:10;;;;;;;3.75;2.70;;;8.60;99.90;;;;;;4032700;29;20045;-63
2022/09/29 06:21:12;;;;;;;5.07;2.50;;;8.60;99.90;;;;;;4032546;29;20075;-63
2022/09/29 06:23:13;;;;;;;4.78;3.00;;;8.60;99.90;;;;;;4034499;29;20040;-63
2022/09/29 06:25:13;;;;;;;4.70;3.28;;;8.60;99.90;;;;;;4033144;29;20556;-63
2022/09/29 06:27:16;;;;;;;5.65;4.00;;;8.60;99.90;;;;;;4051756;29;20036;-64
2022/09/29 06:29:16;;;;;;;7.75;4.15;;;8.60;99.90;;;;;;4039916;29;20820;-63
2022/09/29 06:31:19;;;;;;;7.45;4.15;;;8.60;99.90;;;;;;4047940;29;20124;-63
2022/09/29 06:33:20;;;;;;;7.82;4.68;;;8.70;99.90;;;;;;4038864;29;20072;-63
2022/09/29 06:37:42;;;;;;;6.28;4.28;;;8.70;99.90;;;;;;4036622;29;20120;-63
2022/09/29 06:39:43;;;;;;;6.45;4.93;;;8.80;99.90;;;;;;4036840;29;20047;-63
2022/09/29 06:41:50;;;;;;;6.70;4.30;;;8.80;99.90;;;;;;4033156;29;20061;-62
2022/09/29 06:43:51;;;;;;;7.43;4.47;;;8.90;99.90;;;;;;4038222;29;20116;-63
2022/09/29 06:45:51;;;;;;;6.53;4.32;;;9.00;99.90;;;;;;4036402;29;20590;-63
2022/09/29 06:47:58;;;;;;;6.68;4.70;;;9.00;99.90;;;;;;4039085;29;20405;-63
2022/09/29 06:50:00;;;;;;;8.18;4.70;;;9.10;99.90;;;;;;4037101;29;20202;-63
2022/09/29 06:52:02;;;;;;;8.65;5.25;;;9.10;99.90;;;;;;4037202;29;20057;-63
2022/09/29 06:54:03;;;;;;;4.80;3.55;;;9.20;99.90;;;;;;4039352;29;20421;-63
2022/09/29 06:56:04;;;;;;;5.90;3.90;;;9.20;99.90;;;;;;4036846;29;20052;-63
2022/09/29 06:58:04;;;;;;;9.18;5.07;;;9.30;99.90;;;;;;4037730;29;20103;-63
2022/09/29 07:00:06;;;;;;;8.07;4.68;;;9.40;99.90;;;;;;4037112;29;20048;-64
2022/09/29 07:02:09;;;;;;;8.13;5.03;;;9.50;99.90;;;;;;4037064;29;20040;-62
2022/09/29 07:04:09;;;;;;;5.65;3.92;;;9.60;99.90;;;;;;4038081;29;20045;-62
2022/09/29 07:06:10;;;;;;;6.30;4.55;;;9.70;99.90;;;;;;4049895;29;20516;-63
2022/09/29 07:08:11;;;;;;;6.63;4.53;;;9.80;99.90;;;;;;4033427;29;20061;-63
2022/09/29 07:10:11;;;;;;;5.82;4.25;;;10.00;99.90;;;;;;4050696;29;20048;-63
2022/09/29 07:12:13;;;;;;;8.45;5.00;;;10.20;99.90;;;;;;4037761;29;20060;-64
2022/09/29 07:14:14;;;;;;;7.70;5.32;;;10.40;99.90;;;;;;4035690;29;20040;-63
2022/09/29 07:16:15;;;;;;;6.85;4.85;;;10.60;99.90;;;;;;4038172;29;20047;-64
2022/09/29 07:18:16;;;;;;;4.75;3.97;;;10.90;99.90;;;;;;4034791;29;20048;-63
2022/09/29 07:20:16;;;;;;;5.68;4.30;;;11.20;99.90;;;;;;4035998;29;20040;-64
2022/09/29 07:22:17;;;;;;;6.28;4.10;;;11.40;99.90;;;;;;4037107;29;20452;-63
2022/09/29 07:24:17;;;;;;;7.00;4.35;;;11.70;99.90;;;;;;4054110;29;20134;-64
2022/09/29 07:26:18;;;;;;;5.35;3.67;;;11.90;99.90;;;;;;4037493;29;20040;-63
2022/09/29 07:28:19;;;;;;;5.50;3.70;;;12.20;99.90;;;;;;4037974;29;20087;-63
2022/09/29 07:30:19;;;;;;;4.80;3.53;;;12.40;99.90;;;;;;4036207;29;20053;-64
2022/09/29 07:32:20;;;;;;;7.00;3.50;;;12.70;99.90;;;;;;4040161;29;20052;-64
2022/09/29 07:34:20;;;;;;;5.47;3.60;;;12.90;99.90;;;;;;4040136;29;20152;-63
2022/09/29 07:36:21;;;;;;;5.40;3.83;;;13.20;99.90;;;;;;4040624;29;20052;-64
2022/09/29 07:38:22;;;;;;;4.25;3.30;;;13.40;99.90;;;;;;4040316;29;20421;-63
2022/09/29 07:40:23;;;;;;;6.60;3.70;;;13.60;99.90;;;;;;4047901;29;20036;-64
2022/09/29 07:42:25;;;;;;;6.00;3.67;;;13.90;99.90;;;;;;4039579;29;20532;-64
2022/09/29 07:44:27;;;;;;;5.20;3.40;;;14.20;99.90;;;;;;4038424;29;20041;-64
2022/09/29 07:46:27;;;;;;;5.50;3.20;;;14.60;99.90;;;;;;4040187;29;20418;-64
2022/09/29 07:48:29;;;;;;;5.57;3.50;;;14.90;99.90;;;;;;4039730;29;20572;-64
2022/09/29 07:50:30;;;;;;;5.65;3.45;;;15.10;99.90;;;;;;4038271;29;20051;-64
2022/09/29 07:52:31;;;;;;;4.47;3.17;;;15.30;99.90;;;;;;4046632;29;20109;-64
2022/09/29 07:54:31;;;;;;;5.03;3.38;;;15.60;99.90;;;;;;4038785;29;20068;-64
2022/09/29 07:56:34;;;;;;;4.07;2.85;;;15.90;99.90;;;;;;4038792;29;20052;-64
2022/09/29 07:58:36;;;;;;;6.93;3.75;;;16.20;99.90;;;;;;4054434;29;20055;-64
2022/09/29 08:00:36;;;;;;;5.82;3.60;;;16.50;99.90;;;;;;4046513;29;20120;-65
2022/09/29 08:02:37;;;;;;;5.45;3.05;;;16.70;99.90;;;;;;4033025;29;20056;-64
2022/09/29 08:04:38;;;;;;;6.20;3.42;;;17.00;99.90;;;;;;4040252;29;20135;-65
2022/09/29 08:06:39;;;;;;;5.10;3.08;;;17.00;99.90;;;;;;4053767;29;20041;-65
2022/09/29 08:08:41;;;;;;;4.35;3.00;;;17.20;99.90;;;;;;4037001;29;20425;-65
2022/09/29 08:10:42;;;;;;;7.10;3.25;;;17.30;99.90;;;;;;4037539;29;20435;-65
2022/09/29 08:12:42;;;;;;;3.70;2.65;;;17.40;99.90;;;;;;4037322;29;20864;-67
2022/09/29 08:14:43;;;;;;;5.18;3.08;;;17.30;99.90;;;;;;4041217;29;20056;-66
2022/09/29 08:16:44;;;;;;;4.20;3.08;;;17.30;99.90;;;;;;4040272;29;20051;-66
2022/09/29 08:18:44;;;;;;;4.40;2.83;;;17.20;99.90;;;;;;4041569;29;20403;-65
2022/09/29 08:20:46;;;;;;;7.43;3.20;;;17.10;99.90;;;;;;4040106;29;20100;-67
2022/09/29 08:22:47;;;;;;;6.25;3.10;;;17.10;99.90;;;;;;4042196;29;20072;-65
2022/09/29 08:24:48;;;;;;;6.53;3.65;;;17.00;99.90;;;;;;4040997;29;20100;-65
2022/09/29 08:26:49;;;;;;;4.60;3.40;;;16.90;99.90;;;;;;4037919;29;20532;-65
2022/09/29 08:28:50;;;;;;;4.63;3.13;;;16.80;99.90;;;;;;4045596;29;20153;-65
2022/09/29 08:30:50;;;;;;;5.57;3.58;;;16.70;99.90;;;;;;4041345;29;20037;-66
2022/09/29 08:32:52;;;;;;;4.55;3.50;;;16.70;99.90;;;;;;4038140;29;20706;-65
2022/09/29 08:34:53;;;;;;;4.25;3.28;;;16.60;99.90;;;;;;4040694;29;20044;-65
2022/09/29 08:36:55;;;;;;;4.07;3.30;;;16.60;99.90;;;;;;4039620;29;20393;-65
2022/09/29 08:38:56;;;;;;;6.72;3.55;;;16.50;99.90;;;;;;4014373;29;20033;-65
2022/09/29 08:41:04;;;;;;;5.80;3.53;;;16.50;99.90;;;;;;4034682;29;20048;-65
2022/09/29 08:43:14;;;;;;;5.50;3.38;;;16.50;99.90;;;;;;4040262;29;20076;-65
2022/09/29 08:45:26;;;;;;;7.65;3.95;;;16.40;99.90;;;;;;4030250;29;20071;-67
2022/09/29 08:47:38;;;;;;;5.45;3.92;;;16.40;99.90;;;;;;4039087;29;20489;-65
2022/09/29 08:49:43;;;;;;;8.20;3.97;;;16.30;99.90;;;;;;4038465;29;20493;-65
2022/09/29 08:51:49;;;;;;;6.57;3.35;;;16.30;99.90;;;;;;4036718;29;20048;-66
2022/09/29 08:53:54;;;;;;;4.90;3.85;;;16.30;99.90;;;;;;4035575;29;20040;-65
2022/09/29 08:55:59;;;;;;;5.28;3.38;;;16.30;99.90;;;;;;4038876;29;20072;-65
2022/09/29 08:58:01;;;;;;;3.55;3.20;;;16.30;99.90;;;;;;4038545;29;20036;-65
2022/09/29 09:00:06;;;;;;;5.28;3.42;;;16.30;99.90;;;;;;4040732;29;20084;-67
2022/09/29 09:02:36;;;;;;;4.20;3.50;;;16.40;99.90;;;;;;4052671;29;20603;-65
2022/09/29 09:04:57;;;;;;;5.82;3.70;;;16.40;99.90;;;;;;4039401;29;20116;-65
2022/09/29 09:07:08;;;;;;;4.63;3.40;;;16.40;99.90;;;;;;4036367;29;20049;-69
2022/09/29 09:09:40;;;;;;;5.95;4.20;;;16.40;99.90;;;;;;4036979;29;20052;-65
2022/09/29 09:11:59;;;;;;;6.00;4.03;;;16.40;99.90;;;;;;4038368;29;20045;-65
2022/09/29 09:14:18;;;;;;;6.25;4.22;;;16.40;99.90;;;;;;4039032;29;20052;-65
2022/09/29 09:16:30;;;;;;;6.28;4.28;;;16.30;99.90;;;;;;4037189;29;20136;-65
2022/09/29 09:18:56;;;;;;;5.93;3.90;;;16.30;99.90;;;;;;4038584;29;20036;-65
2022/09/29 09:21:18;;;;;;;6.38;4.10;;;16.30;99.90;;;;;;4038513;29;20032;-65
2022/09/29 09:23:29;;;;;;;7.17;4.60;;;16.30;99.90;;;;;;4041008;29;20139;-65
2022/09/29 09:25:37;;;;;;;7.97;4.45;;;16.20;99.90;;;;;;4035392;29;20045;-65
2022/09/29 09:27:44;;;;;;;5.40;4.18;;;16.20;99.90;;;;;;4040506;29;20512;-65
2022/09/29 09:29:48;;;;;;;6.60;3.72;;;16.20;99.90;;;;;;4036781;29;20044;-66
2022/09/29 09:32:11;;;;;;;6.20;4.35;;;16.20;99.90;;;;;;4039710;29;20045;-65
2022/09/29 09:34:19;;;;;;;5.82;3.83;;;16.30;99.90;;;;;;4038688;29;20052;-65
2022/09/29 09:36:29;;;;;;;5.20;4.32;;;16.30;99.90;;;;;;4037676;29;20067;-65
2022/09/29 09:38:44;;;;;;;6.88;4.28;;;16.30;99.90;;;;;;4040382;29;20536;-65
2022/09/29 09:40:49;;;;;;;7.78;4.55;;;16.30;99.90;;;;;;4043760;29;20152;-65
2022/09/29 09:43:03;;;;;;;7.70;4.15;;;16.30;99.90;;;;;;4037769;29;20048;-65
2022/09/29 09:45:10;;;;;;;5.00;3.60;;;16.30;99.90;;;;;;4040007;29;20067;-67
2022/09/29 09:47:46;;;;;;;4.13;3.10;;;16.20;99.90;;;;;;4040445;29;20048;-65
2022/09/29 09:49:51;;;;;;;5.50;3.42;;;16.30;99.90;;;;;;4050221;29;20489;-66
2022/09/29 09:52:07;;;;;;;6.40;3.75;;;16.30;99.90;;;;;;4038271;29;20512;-66
2022/09/29 09:54:22;;;;;;;5.43;3.78;;;16.30;99.90;;;;;;4035853;29;20048;-65
2022/09/29 09:56:51;;;;;;;5.90;4.00;;;16.40;99.90;;;;;;4036997;29;20512;-65
2022/09/29 09:59:04;;;;;;;4.75;3.40;;;16.40;99.90;;;;;;4056333;29;20070;-65
2022/09/29 10:01:07;;;;;;;3.90;3.00;;;16.40;99.90;;;;;;4037769;29;20180;-65
2022/09/29 10:03:09;;;;;;;3.83;3.33;;;16.40;99.90;;;;;;4037580;29;20074;-65
2022/09/29 10:05:19;;;;;;;4.25;3.17;;;16.40;99.90;;;;;;4044979;29;20060;-67
2022/09/29 10:07:23;;;;;;;5.13;3.53;;;16.40;99.90;;;;;;4039004;29;20040;-65
2022/09/29 10:09:24;;;;;;;3.75;3.00;;;16.40;99.90;;;;;;4039797;29;20555;-65
2022/09/29 10:11:31;;;;;;;4.00;2.88;;;16.40;99.90;;;;;;4038299;29;20564;-66
2022/09/29 10:13:31;;;;;;;4.43;3.05;;;16.40;99.90;;;;;;4047824;29;20028;-65
2022/09/29 10:15:51;;;;;;;4.78;3.05;;;16.40;99.90;;;;;;4038605;29;20104;-66
2022/09/29 10:18:14;;;;;;;6.03;3.33;;;16.40;99.90;;;;;;4037794;29;20501;-65
2022/09/29 10:20:30;;;;;;;6.95;3.00;;;16.40;99.90;;;;;;4037414;29;20560;-66
2022/09/29 10:22:32;;;;;;;5.28;3.00;;;16.40;99.90;;;;;;4036220;29;20774;-65
2022/09/29 10:24:32;;;;;;;4.03;2.90;;;16.50;99.90;;;;;;4037556;29;20065;-65
2022/09/29 10:26:42;;;;;;;4.22;2.70;;;16.50;99.90;;;;;;4037868;29;20445;-65
2022/09/29 10:28:57;;;;;;;5.85;2.90;;;16.50;99.90;;;;;;4038532;29;20052;-65
2022/09/29 10:30:57;;;;;;;5.20;3.13;;;16.50;99.90;;;;;;4037693;29;20036;-65
2022/09/29 10:33:02;;;;;;;4.97;3.30;;;16.50;99.90;;;;;;4038661;29;20485;-69
2022/09/29 10:35:36;;;;;;;2.78;2.53;;;16.50;99.90;;;;;;4039074;29;20480;-66
2022/09/29 10:37:39;;;;;;;5.80;2.90;;;16.50;99.90;;;;;;4037616;29;20060;-65
2022/09/29 10:39:44;;;;;;;4.00;2.80;;;16.60;99.90;;;;;;4050169;29;20041;-65
2022/09/29 10:41:53;;;;;;;4.65;2.80;;;16.50;99.90;;;;;;4034455;29;20500;-66
2022/09/29 10:43:54;;;;;;;3.17;2.47;;;16.50;99.90;;;;;;4038763;29;20032;-65
2022/09/29 10:45:57;;;;;;;4.25;2.90;;;16.50;99.90;;;;;;4038089;29;20358;-65
2022/09/29 10:47:58;;;;;;;6.60;3.65;;;16.50;99.90;;;;;;4037034;29;20036;-65
2022/09/29 10:50:17;;;;;;;4.60;2.95;;;16.50;99.90;;;;;;4038526;29;20047;-65
2022/09/29 10:52:27;;;;;;;5.13;3.10;;;16.50;99.90;;;;;;4039107;29;20509;-65
2022/09/29 10:54:32;;;;;;;8.15;3.33;;;16.50;99.90;;;;;;4039654;29;20400;-65
2022/09/29 10:56:33;;;;;;;2.80;2.45;;;16.50;99.90;;;;;;4050317;29;20128;-65
2022/09/29 10:58:42;;;;;;;5.75;3.33;;;16.60;99.90;;;;;;4036975;29;20036;-65